createdAt,value
2019-01-06T00:01:37.517Z,0.47
2019-01-06T00:04:37.738Z,0.80
2019-01-06T00:07:55.432Z,1.07
2019-01-06T00:10:56.016Z,0.50
2019-01-06T00:13:53.434Z,0.83
2019-01-06T00:16:58.010Z,0.47
2019-01-06T00:20:01.678Z,0.60
2019-01-06T00:22:56.066Z,0.40
2019-01-06T00:26:08.721Z,1.20
2019-01-06T00:29:17.084Z,0.90
2019-01-06T00:32:28.566Z,0.43
2019-01-06T00:35:32.282Z,0.43
2019-01-06T00:38:28.002Z,1.60
2019-01-06T00:41:32.896Z,0.80
2019-01-06T00:44:28.618Z,0.70
2019-01-06T00:47:19.768Z,0.90
2019-01-06T00:50:32.668Z,0.80
2019-01-06T00:53:21.792Z,0.53
2019-01-06T00:56:32.246Z,0.73
2019-01-06T00:59:33.404Z,0.67
2019-01-06T01:02:29.468Z,0.67
2019-01-06T01:05:18.244Z,0.50
2019-01-06T01:08:24.374Z,0.60
2019-01-06T01:11:36.157Z,1.00
2019-01-06T01:14:40.370Z,0.60
2019-01-06T01:17:32.330Z,1.30
2019-01-06T01:20:37.952Z,0.67
2019-01-06T01:23:26.385Z,0.60
2019-01-06T01:26:36.250Z,0.63
2019-01-06T01:29:39.769Z,0.57
2019-01-06T01:32:44.344Z,0.90
2019-01-06T01:35:35.910Z,0.50
2019-01-06T01:38:35.069Z,0.97
2019-01-06T01:41:26.718Z,0.90
2019-01-06T01:44:38.956Z,0.83
2019-01-06T01:47:33.173Z,1.00
2019-01-06T01:50:34.526Z,1.17
2019-01-06T01:53:26.106Z,0.97
2019-01-06T01:56:38.606Z,1.00
2019-01-06T01:59:27.297Z,0.37
2019-01-06T02:02:29.364Z,0.80
2019-01-06T02:05:34.450Z,0.70
2019-01-06T02:08:36.629Z,0.93
2019-01-06T02:11:41.380Z,0.53
2019-01-06T02:14:48.638Z,0.70
2019-01-06T02:17:55.803Z,0.50
2019-01-06T02:21:14.904Z,0.80
2019-01-06T02:24:19.556Z,0.50
2019-01-06T02:27:17.725Z,0.77
2019-01-06T02:30:25.692Z,0.57
2019-01-06T02:33:28.095Z,1.03
2019-01-06T02:36:28.808Z,0.53
2019-01-06T02:39:24.317Z,0.73
2019-01-06T02:42:24.897Z,0.67
2019-01-06T02:45:36.786Z,0.77
2019-01-06T02:48:40.653Z,0.43
2019-01-06T02:51:38.541Z,0.60
2019-01-06T02:54:43.503Z,1.67
2019-01-06T02:57:38.718Z,0.67
2019-01-06T03:00:28.623Z,0.70
2019-01-06T03:03:24.200Z,1.03
2019-01-06T03:06:28.949Z,1.67
2019-01-06T03:09:48.757Z,0.40
2019-01-06T03:13:00.840Z,0.73
2019-01-06T03:16:06.479Z,0.77
2019-01-06T03:19:03.839Z,0.67
2019-01-06T03:22:11.843Z,0.70
2019-01-06T03:25:16.616Z,0.87
2019-01-06T03:28:14.942Z,0.73
2019-01-06T03:31:06.166Z,0.50
2019-01-06T03:34:07.918Z,0.77
2019-01-06T03:36:56.866Z,1.00
2019-01-06T03:40:09.947Z,1.07
2019-01-06T03:43:10.571Z,0.67
2019-01-06T03:46:08.841Z,0.33
2019-01-06T03:49:12.938Z,2.03
2019-01-06T03:52:13.974Z,1.10
2019-01-06T03:55:02.923Z,0.47
2019-01-06T03:58:11.315Z,0.63
2019-01-06T04:01:09.035Z,0.93
2019-01-06T04:04:07.850Z,0.60
2019-01-06T04:07:13.321Z,0.70
2019-01-06T04:10:18.207Z,1.17
2019-01-06T04:13:30.761Z,1.30
2019-01-06T04:16:43.401Z,1.03
2019-01-06T04:19:48.267Z,0.47
2019-01-06T04:22:53.301Z,0.43
2019-01-06T04:25:48.377Z,2.07
2019-01-06T04:28:44.302Z,0.80
2019-01-06T04:31:49.441Z,0.50
2019-01-06T04:35:03.276Z,0.73
2019-01-06T04:38:08.034Z,0.60
2019-01-06T04:41:20.264Z,0.50
2019-01-06T04:44:25.569Z,0.90
2019-01-06T04:47:24.393Z,0.60
2019-01-06T04:50:19.127Z,0.70
2019-01-06T04:53:32.865Z,2.07
2019-01-06T04:56:24.211Z,0.53
2019-01-06T04:59:25.711Z,2.17
2019-01-06T05:02:23.091Z,2.07
2019-01-06T05:05:35.479Z,0.83
2019-01-06T05:08:41.574Z,0.50
2019-01-06T05:11:45.138Z,0.30
2019-01-06T05:14:50.655Z,0.60
2019-01-06T05:17:45.934Z,1.03
2019-01-06T05:20:51.063Z,0.67
2019-01-06T05:23:59.556Z,0.83
2019-01-06T05:27:04.835Z,0.80
2019-01-06T05:30:13.004Z,0.40
2019-01-06T05:33:18.250Z,1.00
2019-01-06T05:36:30.464Z,0.73
2019-01-06T05:39:22.098Z,0.67
2019-01-06T05:42:17.494Z,0.40
2019-01-06T05:45:12.355Z,0.50
2019-01-06T05:48:20.504Z,0.77
2019-01-06T05:51:17.972Z,0.60
2019-01-06T05:54:29.860Z,1.10
2019-01-06T05:57:18.641Z,0.87
2019-01-06T06:00:31.904Z,0.60
2019-01-06T06:03:36.799Z,0.97
2019-01-06T06:06:37.944Z,0.77
2019-01-06T06:09:41.354Z,0.83
2019-01-06T06:12:43.831Z,0.83
2019-01-06T06:15:50.814Z,0.87
2019-01-06T06:18:58.208Z,1.00
2019-01-06T06:21:49.464Z,0.60
2019-01-06T06:24:51.778Z,0.67
2019-01-06T06:27:40.763Z,0.67
2019-01-06T06:30:42.178Z,0.87
2019-01-06T06:33:33.659Z,0.57
2019-01-06T06:36:46.254Z,0.40
2019-01-06T06:39:34.959Z,0.90
2019-01-06T06:42:39.718Z,0.80
2019-01-06T06:45:34.737Z,0.77
2019-01-06T06:48:45.731Z,0.67
2019-01-06T06:51:50.816Z,0.57
2019-01-06T06:54:46.474Z,0.50
2019-01-06T06:57:53.278Z,0.57
2019-01-06T07:01:07.574Z,0.60
2019-01-06T07:03:56.360Z,1.03
2019-01-06T07:07:08.558Z,0.43
2019-01-06T07:09:57.290Z,0.60
2019-01-06T07:16:12.857Z,0.20
2019-01-06T07:19:01.679Z,0.60
2019-01-06T07:21:56.909Z,0.90
2019-01-06T07:25:02.068Z,1.20
2019-01-06T07:28:19.172Z,0.70
2019-01-06T07:31:27.310Z,0.43
2019-01-06T07:34:29.307Z,1.30
2019-01-06T07:37:27.148Z,0.43
2019-01-06T07:43:48.168Z,0.77
2019-01-06T07:46:43.469Z,1.43
2019-01-06T07:49:43.862Z,1.13
2019-01-06T07:52:54.078Z,1.10
2019-01-06T07:55:42.831Z,0.63
2019-01-06T07:58:38.909Z,0.50
2019-01-06T08:01:28.109Z,0.70
2019-01-06T08:07:23.448Z,0.67
2019-01-06T08:10:38.155Z,1.80
2019-01-06T08:13:34.402Z,0.47
2019-01-06T08:16:52.883Z,0.53
2019-01-06T08:20:12.953Z,0.40
2019-01-06T08:23:09.165Z,0.80
2019-01-06T08:26:00.999Z,0.50
2019-01-06T08:35:25.778Z,0.97
2019-01-06T08:38:23.986Z,0.57
2019-01-06T08:41:20.067Z,0.60
2019-01-06T08:44:17.983Z,1.13
2019-01-06T08:47:20.117Z,0.40
2019-01-06T08:50:09.131Z,0.77
2019-01-06T08:53:09.995Z,0.70
2019-01-06T08:56:15.386Z,0.70
2019-01-06T08:59:10.740Z,1.60
2019-01-06T09:02:05.577Z,0.50
2019-01-06T09:08:19.953Z,1.10
2019-01-06T09:11:27.017Z,0.40
2019-01-06T09:14:32.731Z,0.60
2019-01-06T09:17:37.221Z,1.33
2019-01-06T09:20:49.818Z,0.93
2019-01-06T09:23:38.342Z,0.90
2019-01-06T09:26:54.523Z,0.70
2019-01-06T09:30:05.989Z,0.67
2019-01-06T09:33:04.023Z,0.50
2019-01-06T09:35:52.676Z,0.60
2019-01-06T09:39:05.195Z,0.80
2019-01-06T09:42:12.388Z,0.73
2019-01-06T09:45:08.443Z,0.70
2019-01-06T09:48:09.191Z,0.80
2019-01-06T09:51:19.481Z,0.83
2019-01-06T09:54:19.887Z,0.80
2019-01-06T09:57:31.627Z,0.80
2019-01-06T10:00:36.870Z,0.80
2019-01-06T10:03:35.409Z,0.63
2019-01-06T10:06:40.719Z,0.73
2019-01-06T10:09:53.065Z,0.73
2019-01-06T10:12:58.058Z,0.60
2019-01-06T10:16:16.296Z,0.60
2019-01-06T10:19:20.322Z,0.80
2019-01-06T10:22:32.252Z,0.80
2019-01-06T10:25:21.079Z,1.00
2019-01-06T10:28:19.450Z,0.90
2019-01-06T10:31:31.086Z,1.00
2019-01-06T10:34:27.572Z,0.83
2019-01-06T10:37:16.292Z,1.37
2019-01-06T10:40:28.798Z,1.97
2019-01-06T10:43:34.321Z,0.87
2019-01-06T10:46:32.600Z,1.30
2019-01-06T10:49:24.754Z,1.47
2019-01-06T10:52:38.441Z,0.80
2019-01-06T10:55:30.131Z,0.77
2019-01-06T10:58:42.442Z,1.53
2019-01-06T11:01:43.241Z,0.70
2019-01-06T11:04:39.674Z,0.77
2019-01-06T11:07:39.891Z,0.77
2019-01-06T11:10:35.290Z,1.33
2019-01-06T11:13:26.817Z,1.33
2019-01-06T11:16:45.179Z,0.97
2019-01-06T11:19:46.283Z,0.63
2019-01-06T11:22:41.765Z,1.13
2019-01-06T11:25:36.500Z,0.80
2019-01-06T11:28:43.138Z,0.70
2019-01-06T11:31:34.848Z,0.57
2019-01-06T11:34:39.935Z,0.97
2019-01-06T11:37:28.864Z,0.80
2019-01-06T11:40:25.281Z,1.20
2019-01-06T11:43:13.960Z,0.60
2019-01-06T11:46:12.646Z,1.00
2019-01-06T11:49:19.732Z,1.10
2019-01-06T11:52:31.669Z,0.80
2019-01-06T11:55:32.602Z,0.60
2019-01-06T11:58:31.156Z,1.30
2019-01-06T12:01:37.920Z,0.80
2019-01-06T12:04:37.335Z,1.00
2019-01-06T12:07:28.774Z,1.03
2019-01-06T12:10:43.108Z,0.63
2019-01-06T12:13:47.933Z,0.80
2019-01-06T12:16:57.033Z,1.10
2019-01-06T12:19:48.741Z,1.27
2019-01-06T12:22:47.088Z,1.27
2019-01-06T12:25:41.374Z,1.30
2019-01-06T12:28:51.314Z,1.00
2019-01-06T12:31:56.711Z,0.70
2019-01-06T12:35:10.607Z,0.97
2019-01-06T12:38:22.362Z,0.87
2019-01-06T12:41:34.755Z,1.33
2019-01-06T12:44:27.020Z,0.87
2019-01-06T12:47:28.801Z,1.37
2019-01-06T12:50:17.546Z,0.83
2019-01-06T12:53:18.744Z,1.20
2019-01-06T12:56:07.337Z,0.90
2019-01-06T12:59:19.274Z,0.83
2019-01-06T13:02:11.096Z,0.83
2019-01-06T13:05:09.176Z,1.00
2019-01-06T13:08:03.835Z,0.90
2019-01-06T13:11:14.165Z,0.90
2019-01-06T13:14:03.027Z,1.10
2019-01-06T13:17:14.650Z,1.20
2019-01-06T13:20:26.904Z,0.80
2019-01-06T13:23:22.565Z,0.73
2019-01-06T13:26:23.308Z,1.47
2019-01-06T13:29:22.091Z,0.97
2019-01-06T13:32:10.874Z,0.77
2019-01-06T13:35:12.364Z,0.93
2019-01-06T13:38:17.175Z,0.93
2019-01-06T13:41:36.138Z,1.70
2019-01-06T13:44:25.023Z,1.33
2019-01-06T13:47:20.477Z,1.13
2019-01-06T13:50:14.879Z,1.53
2019-01-06T13:53:26.811Z,0.93
2019-01-06T13:56:30.803Z,0.87
2019-01-06T13:59:48.914Z,0.93
2019-01-06T14:02:52.433Z,0.73
2019-01-06T14:05:47.759Z,1.00
2019-01-06T14:08:52.605Z,1.23
2019-01-06T14:11:51.087Z,1.10
2019-01-06T14:14:42.766Z,1.10
2019-01-06T14:17:50.717Z,0.87
2019-01-06T14:20:54.424Z,1.00
2019-01-06T14:23:53.249Z,0.90
2019-01-06T14:26:42.083Z,1.67
2019-01-06T14:29:41.240Z,1.47
2019-01-06T14:32:41.725Z,1.40
2019-01-06T14:35:56.875Z,0.93
2019-01-06T14:38:54.455Z,1.20
2019-01-06T14:41:57.148Z,1.10
2019-01-06T14:44:58.163Z,1.20
2019-01-06T14:48:10.852Z,2.83
2019-01-06T14:51:05.180Z,1.20
2019-01-06T14:54:17.725Z,1.00
2019-01-06T14:57:18.419Z,1.00
2019-01-06T15:00:15.349Z,1.20
2019-01-06T15:03:16.641Z,1.20
2019-01-06T15:06:15.275Z,0.87
2019-01-06T15:09:15.889Z,1.40
2019-01-06T15:12:27.642Z,1.00
2019-01-06T15:15:16.622Z,2.07
2019-01-06T15:18:28.511Z,1.00
2019-01-06T15:21:39.881Z,1.50
2019-01-06T15:24:53.739Z,1.33
2019-01-06T15:27:48.743Z,1.20
2019-01-06T15:31:02.889Z,1.33
2019-01-06T15:34:09.346Z,1.37
2019-01-06T15:37:21.543Z,1.23
2019-01-06T15:40:13.079Z,1.10
2019-01-06T15:43:32.601Z,1.90
2019-01-06T15:46:29.966Z,1.23
2019-01-06T15:49:28.535Z,1.33
2019-01-06T15:52:29.521Z,1.40
2019-01-06T15:55:41.478Z,1.03
2019-01-06T15:58:47.040Z,1.33
2019-01-06T16:01:57.179Z,1.30
2019-01-06T16:04:46.325Z,1.40
2019-01-06T16:07:56.501Z,1.30
2019-01-06T16:10:45.627Z,1.03
2019-01-06T16:13:50.383Z,1.40
2019-01-06T16:16:39.206Z,1.30
2019-01-06T16:19:51.337Z,1.43
2019-01-06T16:23:03.807Z,1.40
2019-01-06T16:26:02.381Z,1.47
2019-01-06T16:29:07.712Z,1.97
2019-01-06T16:32:06.068Z,1.40
2019-01-06T16:35:06.691Z,1.17
2019-01-06T16:38:02.263Z,1.53
2019-01-06T16:40:51.418Z,1.50
2019-01-06T16:43:54.443Z,1.40
2019-01-06T16:46:55.665Z,1.73
2019-01-06T16:50:07.902Z,1.97
2019-01-06T16:53:19.297Z,1.40
2019-01-06T16:56:14.748Z,2.23
2019-01-06T16:59:03.416Z,1.67
2019-01-06T17:02:16.779Z,1.27
2019-01-06T17:05:06.069Z,1.20
2019-01-06T17:08:19.619Z,1.77
2019-01-06T17:11:24.725Z,1.40
2019-01-06T17:14:28.763Z,1.47
2019-01-06T17:17:20.603Z,2.17
2019-01-06T17:20:22.454Z,1.57
2019-01-06T17:23:23.013Z,1.70
2019-01-06T17:26:18.469Z,1.83
2019-01-06T17:29:13.426Z,1.83
2019-01-06T17:32:08.690Z,1.93
2019-01-06T17:35:00.168Z,1.87
2019-01-06T17:38:04.648Z,1.60
2019-01-06T17:41:10.030Z,1.63
2019-01-06T17:44:11.254Z,1.40
2019-01-06T17:47:19.122Z,1.50
2019-01-06T17:50:28.990Z,1.60
2019-01-06T17:53:34.030Z,1.60
2019-01-06T17:56:35.923Z,1.80
2019-01-06T17:59:27.124Z,1.83
2019-01-06T18:02:38.603Z,2.10
2019-01-06T18:05:29.923Z,1.60
2019-01-06T18:08:37.537Z,1.77
2019-01-06T18:11:41.517Z,1.70
2019-01-06T18:14:39.525Z,2.00
2019-01-06T18:17:43.880Z,1.60
2019-01-06T18:20:56.602Z,1.80
2019-01-06T18:24:01.704Z,1.70
2019-01-06T18:27:08.622Z,1.90
2019-01-06T18:30:09.115Z,1.83
2019-01-06T18:33:10.544Z,1.70
2019-01-06T18:36:01.584Z,1.87
2019-01-06T18:39:03.902Z,2.03
2019-01-06T18:42:04.988Z,1.67
2019-01-06T18:45:08.730Z,1.90
2019-01-06T18:47:56.454Z,1.70
2019-01-06T18:50:58.799Z,2.90
2019-01-06T18:54:02.734Z,1.70
2019-01-06T18:57:03.944Z,1.77
2019-01-06T18:59:55.283Z,1.77
2019-01-06T19:03:07.404Z,1.80
2019-01-06T19:05:56.184Z,1.67
2019-01-06T19:08:57.941Z,1.83
2019-01-06T19:12:03.096Z,2.20
2019-01-06T19:15:07.885Z,2.20
2019-01-06T19:18:05.867Z,1.90
2019-01-06T19:21:16.983Z,2.17
2019-01-06T19:24:28.267Z,2.07
2019-01-06T19:27:23.630Z,2.23
2019-01-06T19:30:12.771Z,1.93
2019-01-06T19:33:24.759Z,1.83
2019-01-06T19:36:22.709Z,1.80
2019-01-06T19:39:18.824Z,2.03
2019-01-06T19:42:23.884Z,2.20
2019-01-06T19:45:31.133Z,2.00
2019-01-06T19:48:28.706Z,2.13
2019-01-06T19:51:24.197Z,2.13
2019-01-06T19:54:25.560Z,2.00
2019-01-06T19:57:20.964Z,2.13
2019-01-06T20:00:09.765Z,2.00
2019-01-06T20:03:14.192Z,1.80
2019-01-06T20:06:05.996Z,1.90
2019-01-06T20:09:15.942Z,2.27
2019-01-06T20:12:21.015Z,1.93
2019-01-06T20:15:22.247Z,1.97
2019-01-06T20:18:26.903Z,2.00
2019-01-06T20:21:31.980Z,1.87
2019-01-06T20:24:27.700Z,2.93
2019-01-06T20:27:28.901Z,2.07
2019-01-06T20:30:26.464Z,1.73
2019-01-06T20:33:38.633Z,1.93
2019-01-06T20:36:44.252Z,2.00
2019-01-06T20:39:56.477Z,2.23
2019-01-06T20:42:55.898Z,2.20
2019-01-06T20:46:00.589Z,1.80
2019-01-06T20:49:28.541Z,1.80
2019-01-06T20:52:24.333Z,1.90
2019-01-06T20:55:36.673Z,2.57
2019-01-06T20:58:38.453Z,2.23
2019-01-06T21:01:44.151Z,2.00
2019-01-06T21:04:52.421Z,1.63
2019-01-06T21:07:40.926Z,2.00
2019-01-06T21:10:37.002Z,2.20
2019-01-06T21:13:41.815Z,2.10
2019-01-06T21:16:39.871Z,2.20
2019-01-06T21:19:47.285Z,2.17
2019-01-06T21:22:42.758Z,2.30
2019-01-06T21:25:54.943Z,1.93
2019-01-06T21:28:53.745Z,2.00
2019-01-06T21:31:59.110Z,2.80
2019-01-06T21:34:55.708Z,2.00
2019-01-06T21:37:44.529Z,2.10
2019-01-06T21:40:51.913Z,1.90
2019-01-06T21:43:52.305Z,2.47
2019-01-06T21:46:59.985Z,2.20
2019-01-06T21:49:54.842Z,2.20
2019-01-06T21:53:07.647Z,2.30
2019-01-06T21:56:12.764Z,2.20
2019-01-06T21:59:27.033Z,2.20
2019-01-06T22:02:18.287Z,1.93
2019-01-06T22:05:30.279Z,2.27
2019-01-06T22:08:24.622Z,1.73
2019-01-06T22:11:25.991Z,1.83
2019-01-06T22:14:17.196Z,2.17
2019-01-06T22:17:29.302Z,2.00
2019-01-06T22:20:23.558Z,2.10
2019-01-06T22:23:35.695Z,2.10
2019-01-06T22:26:34.213Z,1.93
2019-01-06T22:29:45.274Z,1.93
2019-01-06T22:32:34.155Z,3.07
2019-01-06T22:35:29.883Z,1.77
2019-01-06T22:38:35.217Z,2.10
2019-01-06T22:41:33.105Z,2.13
2019-01-06T22:44:27.501Z,2.27
2019-01-06T22:47:23.182Z,2.07
2019-01-06T22:50:12.371Z,2.40
2019-01-06T22:53:16.712Z,2.50
2019-01-06T22:56:08.115Z,2.73
2019-01-06T22:59:19.601Z,2.17
2019-01-06T23:02:33.635Z,2.37
2019-01-06T23:05:32.092Z,2.50
2019-01-06T23:08:29.284Z,2.20
2019-01-06T23:11:27.643Z,2.10
2019-01-06T23:14:28.310Z,2.20
2019-01-06T23:17:23.464Z,2.30
2019-01-06T23:20:28.746Z,1.97
2019-01-06T23:23:41.329Z,2.10
2019-01-06T23:26:36.770Z,2.53
2019-01-06T23:29:44.405Z,1.93
2019-01-06T23:32:58.166Z,2.60
2019-01-06T23:35:59.549Z,2.00
2019-01-06T23:39:04.991Z,2.13
2019-01-06T23:42:00.459Z,2.20
2019-01-06T23:45:05.838Z,3.07
2019-01-06T23:48:04.595Z,2.20
2019-01-06T23:50:55.896Z,2.43
2019-01-06T23:54:00.735Z,2.50
2019-01-06T23:56:58.868Z,2.40
2019-01-06T23:59:54.432Z,2.27
